sensor_id;sensor_type;location;lat;lon;timestamp;temperature;humidity
23188;DHT22;11762;59.878;17.686;2023-02-28T00:01:06;1.80;99.90
23188;DHT22;11762;59.878;17.686;2023-02-28T00:03:33;1.80;99.90
23188;DHT22;11762;59.878;17.686;2023-02-28T00:06:01;1.80;99.90
23188;DHT22;11762;59.878;17.686;2023-02-28T00:08:30;1.70;99.90
23188;DHT22;11762;59.878;17.686;2023-02-28T00:11:01;1.70;99.90
23188;DHT22;11762;59.878;17.686;2023-02-28T00:13:28;1.70;99.90
23188;DHT22;11762;59.878;17.686;2023-02-28T00:15:59;1.60;99.90
23188;DHT22;11762;59.878;17.686;2023-02-28T00:18:27;1.50;99.90
23188;DHT22;11762;59.878;17.686;2023-02-28T00:20:54;1.50;99.90
23188;DHT22;11762;59.878;17.686;2023-02-28T00:23:21;1.40;99.90
23188;DHT22;11762;59.878;17.686;2023-02-28T00:25:50;1.40;99.90
23188;DHT22;11762;59.878;17.686;2023-02-28T00:28:17;1.40;99.90
23188;DHT22;11762;59.878;17.686;2023-02-28T00:30:44;1.50;99.90
23188;DHT22;11762;59.878;17.686;2023-02-28T00:33:11;1.50;99.90
23188;DHT22;11762;59.878;17.686;2023-02-28T00:35:38;1.50;99.90
23188;DHT22;11762;59.878;17.686;2023-02-28T00:38:06;1.50;99.90
23188;DHT22;11762;59.878;17.686;2023-02-28T00:40:33;1.50;99.90
23188;DHT22;11762;59.878;17.686;2023-02-28T00:43:01;1.50;99.90
23188;DHT22;11762;59.878;17.686;2023-02-28T00:45:28;1.50;99.90
23188;DHT22;11762;59.878;17.686;2023-02-28T00:47:55;1.50;99.90
23188;DHT22;11762;59.878;17.686;2023-02-28T00:50:22;1.50;99.90
23188;DHT22;11762;59.878;17.686;2023-02-28T00:52:49;1.50;99.90
23188;DHT22;11762;59.878;17.686;2023-02-28T00:55:16;1.60;99.90
23188;DHT22;11762;59.878;17.686;2023-02-28T00:57:44;1.60;99.90
23188;DHT22;11762;59.878;17.686;2023-02-28T01:00:13;1.60;99.90
23188;DHT22;11762;59.878;17.686;2023-02-28T01:02:40;1.60;99.90
23188;DHT22;11762;59.878;17.686;2023-02-28T01:05:08;1.60;99.90
23188;DHT22;11762;59.878;17.686;2023-02-28T01:07:35;1.60;99.90
23188;DHT22;11762;59.878;17.686;2023-02-28T01:10:03;1.70;99.90
23188;DHT22;11762;59.878;17.686;2023-02-28T01:12:30;1.70;99.90
23188;DHT22;11762;59.878;17.686;2023-02-28T01:14:57;1.80;99.90
23188;DHT22;11762;59.878;17.686;2023-02-28T01:17:25;1.80;99.90
23188;DHT22;11762;59.878;17.686;2023-02-28T01:19:53;1.80;99.90
23188;DHT22;11762;59.878;17.686;2023-02-28T01:22:21;1.80;99.90
23188;DHT22;11762;59.878;17.686;2023-02-28T01:24:48;1.90;99.90
23188;DHT22;11762;59.878;17.686;2023-02-28T01:27:15;1.90;99.90
23188;DHT22;11762;59.878;17.686;2023-02-28T01:29:42;1.90;99.90
23188;DHT22;11762;59.878;17.686;2023-02-28T01:32:09;1.90;99.90
23188;DHT22;11762;59.878;17.686;2023-02-28T01:34:37;1.90;99.90
23188;DHT22;11762;59.878;17.686;2023-02-28T01:37:04;1.90;99.90
23188;DHT22;11762;59.878;17.686;2023-02-28T01:39:31;2.00;99.90
23188;DHT22;11762;59.878;17.686;2023-02-28T01:41:58;2.00;99.90
23188;DHT22;11762;59.878;17.686;2023-02-28T01:44:58;1.90;99.90
23188;DHT22;11762;59.878;17.686;2023-02-28T01:47:27;1.90;99.90
23188;DHT22;11762;59.878;17.686;2023-02-28T01:49:56;1.90;99.90
23188;DHT22;11762;59.878;17.686;2023-02-28T01:52:24;2.00;99.90
23188;DHT22;11762;59.878;17.686;2023-02-28T01:54:54;2.00;99.90
23188;DHT22;11762;59.878;17.686;2023-02-28T01:57:25;2.00;99.90
23188;DHT22;11762;59.878;17.686;2023-02-28T01:59:58;2.10;99.90
23188;DHT22;11762;59.878;17.686;2023-02-28T02:02:27;2.10;99.90
23188;DHT22;11762;59.878;17.686;2023-02-28T02:04:59;2.00;99.90
23188;DHT22;11762;59.878;17.686;2023-02-28T02:07:30;2.00;99.90
23188;DHT22;11762;59.878;17.686;2023-02-28T02:10:05;1.90;99.90
23188;DHT22;11762;59.878;17.686;2023-02-28T02:12:42;1.90;99.90
23188;DHT22;11762;59.878;17.686;2023-02-28T02:15:16;1.90;99.90
23188;DHT22;11762;59.878;17.686;2023-02-28T02:17:48;1.80;99.90
23188;DHT22;11762;59.878;17.686;2023-02-28T02:20:49;1.80;99.90
23188;DHT22;11762;59.878;17.686;2023-02-28T02:23:39;1.80;99.90
23188;DHT22;11762;59.878;17.686;2023-02-28T02:29:21;1.70;99.90
23188;DHT22;11762;59.878;17.686;2023-02-28T02:32:02;1.70;99.90
23188;DHT22;11762;59.878;17.686;2023-02-28T02:34:48;1.60;99.90
23188;DHT22;11762;59.878;17.686;2023-02-28T02:37:27;1.70;99.90
23188;DHT22;11762;59.878;17.686;2023-02-28T02:40:02;1.70;99.90
23188;DHT22;11762;59.878;17.686;2023-02-28T02:42:36;1.70;99.90
23188;DHT22;11762;59.878;17.686;2023-02-28T02:45:09;1.70;99.90
23188;DHT22;11762;59.878;17.686;2023-02-28T02:47:39;1.70;99.90
23188;DHT22;11762;59.878;17.686;2023-02-28T02:50:12;1.70;99.90
23188;DHT22;11762;59.878;17.686;2023-02-28T02:52:44;1.70;99.90
23188;DHT22;11762;59.878;17.686;2023-02-28T02:55:12;1.70;99.90
23188;DHT22;11762;59.878;17.686;2023-02-28T02:57:45;1.70;99.90
23188;DHT22;11762;59.878;17.686;2023-02-28T03:00:14;1.60;99.90
23188;DHT22;11762;59.878;17.686;2023-02-28T03:02:42;1.70;99.90
23188;DHT22;11762;59.878;17.686;2023-02-28T03:05:18;1.70;99.90
23188;DHT22;11762;59.878;17.686;2023-02-28T03:07:45;1.70;99.90
23188;DHT22;11762;59.878;17.686;2023-02-28T03:10:31;1.60;99.90
23188;DHT22;11762;59.878;17.686;2023-02-28T03:13:25;1.60;99.90
23188;DHT22;11762;59.878;17.686;2023-02-28T03:16:07;1.60;99.90
23188;DHT22;11762;59.878;17.686;2023-02-28T03:18:43;1.50;99.90
23188;DHT22;11762;59.878;17.686;2023-02-28T03:21:20;1.50;99.90
23188;DHT22;11762;59.878;17.686;2023-02-28T03:23:55;1.50;99.90
23188;DHT22;11762;59.878;17.686;2023-02-28T03:26:25;1.50;99.90
23188;DHT22;11762;59.878;17.686;2023-02-28T03:29:00;1.60;99.90
23188;DHT22;11762;59.878;17.686;2023-02-28T03:31:31;1.60;99.90
23188;DHT22;11762;59.878;17.686;2023-02-28T03:34:03;1.70;99.90
23188;DHT22;11762;59.878;17.686;2023-02-28T03:36:35;1.70;99.90
23188;DHT22;11762;59.878;17.686;2023-02-28T03:39:14;1.70;99.90
23188;DHT22;11762;59.878;17.686;2023-02-28T03:41:43;1.60;99.90
23188;DHT22;11762;59.878;17.686;2023-02-28T03:44:17;1.60;99.90
23188;DHT22;11762;59.878;17.686;2023-02-28T03:46:50;1.50;99.90
23188;DHT22;11762;59.878;17.686;2023-02-28T03:49:23;1.50;99.90
23188;DHT22;11762;59.878;17.686;2023-02-28T03:51:54;1.50;99.90
23188;DHT22;11762;59.878;17.686;2023-02-28T03:54:27;1.50;99.90
23188;DHT22;11762;59.878;17.686;2023-02-28T03:57:01;1.60;99.90
23188;DHT22;11762;59.878;17.686;2023-02-28T03:59:34;1.60;99.90
23188;DHT22;11762;59.878;17.686;2023-02-28T04:02:03;1.60;99.90
23188;DHT22;11762;59.878;17.686;2023-02-28T04:04:30;1.70;99.90
23188;DHT22;11762;59.878;17.686;2023-02-28T04:07:04;1.70;99.90
23188;DHT22;11762;59.878;17.686;2023-02-28T04:09:31;1.70;99.90
23188;DHT22;11762;59.878;17.686;2023-02-28T04:11:58;1.70;99.90
23188;DHT22;11762;59.878;17.686;2023-02-28T04:14:26;1.70;99.90
23188;DHT22;11762;59.878;17.686;2023-02-28T04:16:53;1.70;99.90
23188;DHT22;11762;59.878;17.686;2023-02-28T04:19:20;1.70;99.90
23188;DHT22;11762;59.878;17.686;2023-02-28T04:21:48;1.80;99.90
23188;DHT22;11762;59.878;17.686;2023-02-28T04:24:19;1.80;99.90
23188;DHT22;11762;59.878;17.686;2023-02-28T04:26:48;1.70;99.90
23188;DHT22;11762;59.878;17.686;2023-02-28T04:29:19;1.80;99.90
23188;DHT22;11762;59.878;17.686;2023-02-28T04:31:47;1.70;99.90
23188;DHT22;11762;59.878;17.686;2023-02-28T04:34:14;1.60;99.90
23188;DHT22;11762;59.878;17.686;2023-02-28T04:36:41;1.70;99.90
23188;DHT22;11762;59.878;17.686;2023-02-28T04:39:09;1.70;99.90
23188;DHT22;11762;59.878;17.686;2023-02-28T04:41:37;1.60;99.90
23188;DHT22;11762;59.878;17.686;2023-02-28T04:44:05;1.60;99.90
23188;DHT22;11762;59.878;17.686;2023-02-28T04:46:32;1.60;99.90
23188;DHT22;11762;59.878;17.686;2023-02-28T04:48:59;1.60;99.90
23188;DHT22;11762;59.878;17.686;2023-02-28T04:51:26;1.60;99.90
23188;DHT22;11762;59.878;17.686;2023-02-28T04:53:53;1.60;99.90
23188;DHT22;11762;59.878;17.686;2023-02-28T04:56:20;1.60;99.90
23188;DHT22;11762;59.878;17.686;2023-02-28T04:58:49;1.70;99.90
23188;DHT22;11762;59.878;17.686;2023-02-28T05:01:19;1.70;99.90
23188;DHT22;11762;59.878;17.686;2023-02-28T05:03:46;1.70;99.90
23188;DHT22;11762;59.878;17.686;2023-02-28T05:06:14;1.70;99.90
23188;DHT22;11762;59.878;17.686;2023-02-28T05:08:41;1.70;99.90
23188;DHT22;11762;59.878;17.686;2023-02-28T05:11:14;1.70;99.90
23188;DHT22;11762;59.878;17.686;2023-02-28T05:13:42;1.70;99.90
23188;DHT22;11762;59.878;17.686;2023-02-28T05:16:10;1.70;99.90
23188;DHT22;11762;59.878;17.686;2023-02-28T05:18:37;1.80;99.90
23188;DHT22;11762;59.878;17.686;2023-02-28T05:21:05;1.80;99.90
23188;DHT22;11762;59.878;17.686;2023-02-28T05:23:32;1.80;99.90
23188;DHT22;11762;59.878;17.686;2023-02-28T05:25:59;1.80;99.90
23188;DHT22;11762;59.878;17.686;2023-02-28T05:28:26;1.80;99.90
23188;DHT22;11762;59.878;17.686;2023-02-28T05:30:54;1.80;99.90
23188;DHT22;11762;59.878;17.686;2023-02-28T05:33:22;1.80;99.90
23188;DHT22;11762;59.878;17.686;2023-02-28T05:35:49;1.70;99.90
23188;DHT22;11762;59.878;17.686;2023-02-28T05:38:16;1.70;99.90
23188;DHT22;11762;59.878;17.686;2023-02-28T05:40:43;1.70;99.90
23188;DHT22;11762;59.878;17.686;2023-02-28T05:43:10;1.70;99.90
23188;DHT22;11762;59.878;17.686;2023-02-28T05:45:38;1.70;99.90
23188;DHT22;11762;59.878;17.686;2023-02-28T05:48:05;1.60;99.90
23188;DHT22;11762;59.878;17.686;2023-02-28T05:50:34;1.60;99.90
23188;DHT22;11762;59.878;17.686;2023-02-28T05:53:01;1.60;99.90
23188;DHT22;11762;59.878;17.686;2023-02-28T05:55:29;1.60;99.90
23188;DHT22;11762;59.878;17.686;2023-02-28T05:57:56;1.60;99.90
23188;DHT22;11762;59.878;17.686;2023-02-28T06:00:23;1.60;99.90
23188;DHT22;11762;59.878;17.686;2023-02-28T06:02:50;1.50;99.90
23188;DHT22;11762;59.878;17.686;2023-02-28T06:05:22;1.50;99.90
23188;DHT22;11762;59.878;17.686;2023-02-28T06:07:50;1.50;99.90
23188;DHT22;11762;59.878;17.686;2023-02-28T06:10:17;1.50;99.90
23188;DHT22;11762;59.878;17.686;2023-02-28T06:12:45;1.60;99.90
23188;DHT22;11762;59.878;17.686;2023-02-28T06:15:13;1.60;99.90
23188;DHT22;11762;59.878;17.686;2023-02-28T06:17:41;1.50;99.90
23188;DHT22;11762;59.878;17.686;2023-02-28T06:20:09;1.50;99.90
23188;DHT22;11762;59.878;17.686;2023-02-28T06:22:38;1.50;99.90
23188;DHT22;11762;59.878;17.686;2023-02-28T06:25:08;1.60;99.90
23188;DHT22;11762;59.878;17.686;2023-02-28T06:27:36;1.60;99.90
23188;DHT22;11762;59.878;17.686;2023-02-28T06:30:03;1.60;99.90
23188;DHT22;11762;59.878;17.686;2023-02-28T06:32:31;1.60;99.90
23188;DHT22;11762;59.878;17.686;2023-02-28T06:34:58;1.60;99.90
23188;DHT22;11762;59.878;17.686;2023-02-28T06:37:25;1.60;99.90
23188;DHT22;11762;59.878;17.686;2023-02-28T06:39:53;1.60;99.90
23188;DHT22;11762;59.878;17.686;2023-02-28T06:42:22;1.60;99.90
23188;DHT22;11762;59.878;17.686;2023-02-28T06:44:54;1.60;99.90
23188;DHT22;11762;59.878;17.686;2023-02-28T06:47:22;1.60;99.90
23188;DHT22;11762;59.878;17.686;2023-02-28T06:49:49;1.50;99.90
23188;DHT22;11762;59.878;17.686;2023-02-28T06:52:16;1.50;99.90
23188;DHT22;11762;59.878;17.686;2023-02-28T06:54:43;1.50;99.90
23188;DHT22;11762;59.878;17.686;2023-02-28T06:57:10;1.50;99.90
23188;DHT22;11762;59.878;17.686;2023-02-28T06:59:39;1.50;99.90
23188;DHT22;11762;59.878;17.686;2023-02-28T07:02:05;1.50;99.90
23188;DHT22;11762;59.878;17.686;2023-02-28T07:04:33;1.50;99.90
23188;DHT22;11762;59.878;17.686;2023-02-28T07:07:00;1.60;99.90
23188;DHT22;11762;59.878;17.686;2023-02-28T07:09:27;1.60;99.90
23188;DHT22;11762;59.878;17.686;2023-02-28T07:11:55;1.60;99.90
23188;DHT22;11762;59.878;17.686;2023-02-28T07:14:23;1.60;99.90
23188;DHT22;11762;59.878;17.686;2023-02-28T07:16:51;1.70;99.90
23188;DHT22;11762;59.878;17.686;2023-02-28T07:19:18;1.70;99.90
23188;DHT22;11762;59.878;17.686;2023-02-28T07:21:45;1.80;99.90
23188;DHT22;11762;59.878;17.686;2023-02-28T07:24:12;1.80;99.90
23188;DHT22;11762;59.878;17.686;2023-02-28T07:26:41;1.90;99.90
23188;DHT22;11762;59.878;17.686;2023-02-28T07:29:08;1.90;99.90
23188;DHT22;11762;59.878;17.686;2023-02-28T07:31:35;2.00;99.90
23188;DHT22;11762;59.878;17.686;2023-02-28T07:34:03;2.00;99.90
23188;DHT22;11762;59.878;17.686;2023-02-28T07:36:30;2.00;99.90
23188;DHT22;11762;59.878;17.686;2023-02-28T07:38:58;2.10;99.90
23188;DHT22;11762;59.878;17.686;2023-02-28T07:41:25;2.10;99.90
23188;DHT22;11762;59.878;17.686;2023-02-28T07:43:53;2.10;99.90
23188;DHT22;11762;59.878;17.686;2023-02-28T07:46:21;2.10;99.90
23188;DHT22;11762;59.878;17.686;2023-02-28T07:48:48;2.20;99.90
23188;DHT22;11762;59.878;17.686;2023-02-28T07:51:17;2.20;99.90
23188;DHT22;11762;59.878;17.686;2023-02-28T07:53:44;2.30;99.90
23188;DHT22;11762;59.878;17.686;2023-02-28T07:56:11;2.40;99.90
23188;DHT22;11762;59.878;17.686;2023-02-28T07:58:38;2.40;99.90
23188;DHT22;11762;59.878;17.686;2023-02-28T08:01:06;2.40;99.90
23188;DHT22;11762;59.878;17.686;2023-02-28T08:03:33;2.40;99.90
23188;DHT22;11762;59.878;17.686;2023-02-28T08:06:01;2.40;99.90
23188;DHT22;11762;59.878;17.686;2023-02-28T08:08:30;2.40;99.90
23188;DHT22;11762;59.878;17.686;2023-02-28T08:10:59;2.40;99.90
23188;DHT22;11762;59.878;17.686;2023-02-28T08:13:27;2.40;99.90
23188;DHT22;11762;59.878;17.686;2023-02-28T08:15:55;2.50;99.90
23188;DHT22;11762;59.878;17.686;2023-02-28T08:18:23;2.60;99.90
23188;DHT22;11762;59.878;17.686;2023-02-28T08:20:50;2.70;99.90
23188;DHT22;11762;59.878;17.686;2023-02-28T08:23:17;2.80;99.90
23188;DHT22;11762;59.878;17.686;2023-02-28T08:25:53;2.90;99.90
23188;DHT22;11762;59.878;17.686;2023-02-28T08:28:20;3.10;99.90
23188;DHT22;11762;59.878;17.686;2023-02-28T08:30:47;3.20;99.90
23188;DHT22;11762;59.878;17.686;2023-02-28T08:33:14;3.40;99.90
23188;DHT22;11762;59.878;17.686;2023-02-28T08:35:42;3.40;99.90
23188;DHT22;11762;59.878;17.686;2023-02-28T08:38:09;3.50;99.90
23188;DHT22;11762;59.878;17.686;2023-02-28T08:40:36;3.60;99.90
23188;DHT22;11762;59.878;17.686;2023-02-28T08:43:04;3.70;99.90
23188;DHT22;11762;59.878;17.686;2023-02-28T08:45:31;3.70;99.90
23188;DHT22;11762;59.878;17.686;2023-02-28T08:47:58;3.70;99.90
23188;DHT22;11762;59.878;17.686;2023-02-28T08:50:25;3.70;99.90
23188;DHT22;11762;59.878;17.686;2023-02-28T08:52:52;3.70;99.90
23188;DHT22;11762;59.878;17.686;2023-02-28T08:55:19;3.80;99.90
23188;DHT22;11762;59.878;17.686;2023-02-28T08:57:46;3.90;99.90
23188;DHT22;11762;59.878;17.686;2023-02-28T09:00:15;3.90;99.90
23188;DHT22;11762;59.878;17.686;2023-02-28T09:02:42;4.00;99.90
23188;DHT22;11762;59.878;17.686;2023-02-28T09:05:10;4.10;99.90
23188;DHT22;11762;59.878;17.686;2023-02-28T09:07:37;4.20;99.90
23188;DHT22;11762;59.878;17.686;2023-02-28T09:10:04;4.40;99.90
23188;DHT22;11762;59.878;17.686;2023-02-28T09:12:34;4.40;99.90
23188;DHT22;11762;59.878;17.686;2023-02-28T09:15:02;4.50;99.90
23188;DHT22;11762;59.878;17.686;2023-02-28T09:17:30;4.60;99.90
23188;DHT22;11762;59.878;17.686;2023-02-28T09:19:57;4.60;99.90
23188;DHT22;11762;59.878;17.686;2023-02-28T09:22:25;4.70;99.90
23188;DHT22;11762;59.878;17.686;2023-02-28T09:24:52;4.80;99.90
23188;DHT22;11762;59.878;17.686;2023-02-28T09:27:19;4.80;99.90
23188;DHT22;11762;59.878;17.686;2023-02-28T09:29:45;4.90;99.90
23188;DHT22;11762;59.878;17.686;2023-02-28T09:32:12;4.90;99.90
23188;DHT22;11762;59.878;17.686;2023-02-28T09:34:41;4.90;99.90
23188;DHT22;11762;59.878;17.686;2023-02-28T09:37:08;4.90;99.90
23188;DHT22;11762;59.878;17.686;2023-02-28T09:39:35;5.00;99.90
23188;DHT22;11762;59.878;17.686;2023-02-28T09:42:04;5.00;99.90
23188;DHT22;11762;59.878;17.686;2023-02-28T09:44:37;5.10;99.90
23188;DHT22;11762;59.878;17.686;2023-02-28T09:47:11;5.10;99.90
23188;DHT22;11762;59.878;17.686;2023-02-28T09:49:43;5.20;99.90
23188;DHT22;11762;59.878;17.686;2023-02-28T09:52:15;5.30;99.90
23188;DHT22;11762;59.878;17.686;2023-02-28T09:54:45;5.40;99.90
23188;DHT22;11762;59.878;17.686;2023-02-28T09:57:18;5.50;99.90
23188;DHT22;11762;59.878;17.686;2023-02-28T09:59:57;5.70;99.90
23188;DHT22;11762;59.878;17.686;2023-02-28T10:05:30;6.00;99.90
23188;DHT22;11762;59.878;17.686;2023-02-28T10:08:08;6.10;99.90
23188;DHT22;11762;59.878;17.686;2023-02-28T10:10:39;6.10;99.90
23188;DHT22;11762;59.878;17.686;2023-02-28T10:13:14;6.20;99.90
23188;DHT22;11762;59.878;17.686;2023-02-28T10:15:42;6.30;99.90
23188;DHT22;11762;59.878;17.686;2023-02-28T10:18:14;6.30;99.90
23188;DHT22;11762;59.878;17.686;2023-02-28T10:20:45;6.30;99.90
23188;DHT22;11762;59.878;17.686;2023-02-28T10:23:16;6.50;99.90
23188;DHT22;11762;59.878;17.686;2023-02-28T10:25:46;6.50;99.90
23188;DHT22;11762;59.878;17.686;2023-02-28T10:28:16;6.50;99.90
23188;DHT22;11762;59.878;17.686;2023-02-28T10:30:46;6.50;99.90
23188;DHT22;11762;59.878;17.686;2023-02-28T10:33:22;6.60;99.90
23188;DHT22;11762;59.878;17.686;2023-02-28T10:35:51;6.60;99.90
23188;DHT22;11762;59.878;17.686;2023-02-28T10:38:21;6.60;99.90
23188;DHT22;11762;59.878;17.686;2023-02-28T10:40:49;6.50;99.90
23188;DHT22;11762;59.878;17.686;2023-02-28T10:43:21;6.60;99.90
23188;DHT22;11762;59.878;17.686;2023-02-28T10:45:58;6.70;99.90
23188;DHT22;11762;59.878;17.686;2023-02-28T10:48:37;6.80;99.90
23188;DHT22;11762;59.878;17.686;2023-02-28T10:51:07;7.00;99.90
23188;DHT22;11762;59.878;17.686;2023-02-28T10:53:45;7.10;99.90
23188;DHT22;11762;59.878;17.686;2023-02-28T10:56:19;7.20;99.90
23188;DHT22;11762;59.878;17.686;2023-02-28T10:58:57;7.20;99.90
23188;DHT22;11762;59.878;17.686;2023-02-28T11:01:34;7.30;99.90
23188;DHT22;11762;59.878;17.686;2023-02-28T11:04:01;7.30;99.90
23188;DHT22;11762;59.878;17.686;2023-02-28T11:06:32;7.50;99.90
23188;DHT22;11762;59.878;17.686;2023-02-28T11:09:01;7.50;99.90
23188;DHT22;11762;59.878;17.686;2023-02-28T11:11:40;7.50;99.90
23188;DHT22;11762;59.878;17.686;2023-02-28T11:14:18;7.40;99.90
23188;DHT22;11762;59.878;17.686;2023-02-28T11:16:47;7.40;99.90
23188;DHT22;11762;59.878;17.686;2023-02-28T11:19:20;7.30;99.90
23188;DHT22;11762;59.878;17.686;2023-02-28T11:21:53;7.30;99.90
23188;DHT22;11762;59.878;17.686;2023-02-28T11:24:24;7.40;99.90
23188;DHT22;11762;59.878;17.686;2023-02-28T11:26:51;7.50;99.90
23188;DHT22;11762;59.878;17.686;2023-02-28T11:29:20;7.50;99.90
23188;DHT22;11762;59.878;17.686;2023-02-28T11:32:13;7.50;99.90
23188;DHT22;11762;59.878;17.686;2023-02-28T11:34:43;7.30;99.90
23188;DHT22;11762;59.878;17.686;2023-02-28T11:37:14;7.20;99.90
23188;DHT22;11762;59.878;17.686;2023-02-28T11:39:42;7.10;99.90
23188;DHT22;11762;59.878;17.686;2023-02-28T11:42:40;7.10;99.90
23188;DHT22;11762;59.878;17.686;2023-02-28T11:45:33;7.00;99.90
23188;DHT22;11762;59.878;17.686;2023-02-28T11:48:08;6.90;99.90
23188;DHT22;11762;59.878;17.686;2023-02-28T11:50:47;6.90;99.90
23188;DHT22;11762;59.878;17.686;2023-02-28T11:53:23;6.90;99.90
23188;DHT22;11762;59.878;17.686;2023-02-28T11:55:59;6.90;99.90
23188;DHT22;11762;59.878;17.686;2023-02-28T11:58:36;7.00;99.90
23188;DHT22;11762;59.878;17.686;2023-02-28T12:01:28;7.10;99.90
23188;DHT22;11762;59.878;17.686;2023-02-28T12:04:03;7.20;99.90
23188;DHT22;11762;59.878;17.686;2023-02-28T12:06:36;7.30;99.90
23188;DHT22;11762;59.878;17.686;2023-02-28T12:09:32;7.40;99.90
23188;DHT22;11762;59.878;17.686;2023-02-28T12:12:10;7.50;99.90
23188;DHT22;11762;59.878;17.686;2023-02-28T12:17:47;7.60;99.90
23188;DHT22;11762;59.878;17.686;2023-02-28T12:20:24;7.60;99.90
23188;DHT22;11762;59.878;17.686;2023-02-28T12:23:00;7.60;99.90
23188;DHT22;11762;59.878;17.686;2023-02-28T12:25:43;7.70;99.90
23188;DHT22;11762;59.878;17.686;2023-02-28T12:28:15;7.70;99.90
23188;DHT22;11762;59.878;17.686;2023-02-28T12:30:50;7.60;99.90
23188;DHT22;11762;59.878;17.686;2023-02-28T12:33:24;7.60;99.90
23188;DHT22;11762;59.878;17.686;2023-02-28T12:35:56;7.70;99.90
23188;DHT22;11762;59.878;17.686;2023-02-28T12:38:26;7.70;99.90
23188;DHT22;11762;59.878;17.686;2023-02-28T12:41:00;7.70;99.90
23188;DHT22;11762;59.878;17.686;2023-02-28T12:43:31;7.60;99.90
23188;DHT22;11762;59.878;17.686;2023-02-28T12:46:02;7.70;99.90
23188;DHT22;11762;59.878;17.686;2023-02-28T12:48:38;7.80;99.90
23188;DHT22;11762;59.878;17.686;2023-02-28T12:51:07;7.80;99.90
23188;DHT22;11762;59.878;17.686;2023-02-28T12:53:42;7.80;99.90
23188;DHT22;11762;59.878;17.686;2023-02-28T12:56:17;7.90;99.90
23188;DHT22;11762;59.878;17.686;2023-02-28T12:58:49;7.90;99.90
23188;DHT22;11762;59.878;17.686;2023-02-28T13:01:38;8.00;99.90
23188;DHT22;11762;59.878;17.686;2023-02-28T13:04:29;8.00;99.90
23188;DHT22;11762;59.878;17.686;2023-02-28T13:07:16;8.10;99.90
23188;DHT22;11762;59.878;17.686;2023-02-28T13:09:52;8.10;99.90
23188;DHT22;11762;59.878;17.686;2023-02-28T13:12:22;8.10;99.90
23188;DHT22;11762;59.878;17.686;2023-02-28T13:14:49;8.10;99.90
23188;DHT22;11762;59.878;17.686;2023-02-28T13:17:19;8.20;99.90
23188;DHT22;11762;59.878;17.686;2023-02-28T13:19:57;8.30;99.90
23188;DHT22;11762;59.878;17.686;2023-02-28T13:22:39;8.30;99.90
23188;DHT22;11762;59.878;17.686;2023-02-28T13:34:47;8.30;99.90
23188;DHT22;11762;59.878;17.686;2023-02-28T13:37:36;8.20;99.90
23188;DHT22;11762;59.878;17.686;2023-02-28T13:40:27;8.20;99.90
23188;DHT22;11762;59.878;17.686;2023-02-28T13:42:54;8.10;99.90
23188;DHT22;11762;59.878;17.686;2023-02-28T13:45:24;8.00;99.90
23188;DHT22;11762;59.878;17.686;2023-02-28T13:47:53;7.90;99.90
23188;DHT22;11762;59.878;17.686;2023-02-28T13:50:24;7.80;99.90
23188;DHT22;11762;59.878;17.686;2023-02-28T13:55:50;8.00;99.90
23188;DHT22;11762;59.878;17.686;2023-02-28T13:58:37;7.90;99.90
23188;DHT22;11762;59.878;17.686;2023-02-28T14:01:28;7.90;99.90
23188;DHT22;11762;59.878;17.686;2023-02-28T14:06:53;7.80;99.90
23188;DHT22;11762;59.878;17.686;2023-02-28T14:09:25;7.80;99.90
23188;DHT22;11762;59.878;17.686;2023-02-28T14:11:54;7.80;99.90
23188;DHT22;11762;59.878;17.686;2023-02-28T14:14:53;7.80;99.90
23188;DHT22;11762;59.878;17.686;2023-02-28T14:17:22;7.80;99.90
23188;DHT22;11762;59.878;17.686;2023-02-28T14:19:50;7.80;99.90
23188;DHT22;11762;59.878;17.686;2023-02-28T14:22:52;7.70;99.90
23188;DHT22;11762;59.878;17.686;2023-02-28T14:25:31;7.70;99.90
23188;DHT22;11762;59.878;17.686;2023-02-28T14:28:08;7.70;99.90
23188;DHT22;11762;59.878;17.686;2023-02-28T14:30:52;7.60;99.90
23188;DHT22;11762;59.878;17.686;2023-02-28T14:33:45;7.70;99.90
23188;DHT22;11762;59.878;17.686;2023-02-28T14:36:18;7.60;99.90
23188;DHT22;11762;59.878;17.686;2023-02-28T14:38:50;7.60;99.90
23188;DHT22;11762;59.878;17.686;2023-02-28T14:41:23;7.50;99.90
23188;DHT22;11762;59.878;17.686;2023-02-28T14:43:52;7.50;99.90
23188;DHT22;11762;59.878;17.686;2023-02-28T14:46:20;7.40;99.90
23188;DHT22;11762;59.878;17.686;2023-02-28T14:48:48;7.40;99.90
23188;DHT22;11762;59.878;17.686;2023-02-28T14:51:19;7.30;99.90
23188;DHT22;11762;59.878;17.686;2023-02-28T14:53:50;7.20;99.90
23188;DHT22;11762;59.878;17.686;2023-02-28T14:56:24;7.10;99.90
23188;DHT22;11762;59.878;17.686;2023-02-28T14:58:52;7.10;99.90
23188;DHT22;11762;59.878;17.686;2023-02-28T15:01:21;7.00;99.90
23188;DHT22;11762;59.878;17.686;2023-02-28T15:03:48;7.00;99.90
23188;DHT22;11762;59.878;17.686;2023-02-28T15:06:23;6.90;99.90
23188;DHT22;11762;59.878;17.686;2023-02-28T15:09:07;6.90;99.90
23188;DHT22;11762;59.878;17.686;2023-02-28T15:11:36;6.80;99.90
23188;DHT22;11762;59.878;17.686;2023-02-28T15:14:04;6.80;99.90
23188;DHT22;11762;59.878;17.686;2023-02-28T15:16:34;6.80;99.90
23188;DHT22;11762;59.878;17.686;2023-02-28T15:19:04;6.70;99.90
23188;DHT22;11762;59.878;17.686;2023-02-28T15:21:34;6.70;99.90
23188;DHT22;11762;59.878;17.686;2023-02-28T15:24:06;6.70;99.90
23188;DHT22;11762;59.878;17.686;2023-02-28T15:26:38;6.60;99.90
23188;DHT22;11762;59.878;17.686;2023-02-28T15:29:08;6.60;99.90
23188;DHT22;11762;59.878;17.686;2023-02-28T15:31:41;6.60;99.90
23188;DHT22;11762;59.878;17.686;2023-02-28T15:34:18;6.60;99.90
23188;DHT22;11762;59.878;17.686;2023-02-28T15:36:45;6.60;99.90
23188;DHT22;11762;59.878;17.686;2023-02-28T15:39:22;6.50;99.90
23188;DHT22;11762;59.878;17.686;2023-02-28T15:41:52;6.50;99.90
23188;DHT22;11762;59.878;17.686;2023-02-28T15:44:26;6.40;99.90
23188;DHT22;11762;59.878;17.686;2023-02-28T15:46:59;6.40;99.90
23188;DHT22;11762;59.878;17.686;2023-02-28T15:49:27;6.40;99.90
23188;DHT22;11762;59.878;17.686;2023-02-28T15:51:57;6.30;99.90
23188;DHT22;11762;59.878;17.686;2023-02-28T15:54:29;6.30;99.90
23188;DHT22;11762;59.878;17.686;2023-02-28T15:57:02;6.20;99.90
23188;DHT22;11762;59.878;17.686;2023-02-28T15:59:30;6.20;99.90
23188;DHT22;11762;59.878;17.686;2023-02-28T16:02:15;6.20;99.90
23188;DHT22;11762;59.878;17.686;2023-02-28T16:05:01;6.10;99.90
23188;DHT22;11762;59.878;17.686;2023-02-28T16:07:40;6.00;99.90
23188;DHT22;11762;59.878;17.686;2023-02-28T16:10:10;6.00;99.90
23188;DHT22;11762;59.878;17.686;2023-02-28T16:12:41;6.00;99.90
23188;DHT22;11762;59.878;17.686;2023-02-28T16:15:20;5.90;99.90
23188;DHT22;11762;59.878;17.686;2023-02-28T16:17:47;5.80;99.90
23188;DHT22;11762;59.878;17.686;2023-02-28T16:20:16;5.80;99.90